createdAt,value
2023-04-12T00:00:12.090Z,40.78
2023-04-12T00:02:39.957Z,36.78
2023-04-12T00:05:09.461Z,35.90
2023-04-12T00:07:36.089Z,36.35
2023-04-12T00:10:03.384Z,38.90
2023-04-12T00:12:29.798Z,39.05
2023-04-12T00:14:56.259Z,35.00
2023-04-12T00:17:22.711Z,34.50
2023-04-12T00:19:50.349Z,42.20
2023-04-12T00:22:16.876Z,37.35
2023-04-12T00:24:43.647Z,37.45
2023-04-12T00:27:10.398Z,39.03
2023-04-12T00:29:37.027Z,38.80
2023-04-12T00:32:05.454Z,35.28
2023-04-12T00:34:31.981Z,38.53
2023-04-12T00:36:58.454Z,38.65
2023-04-12T00:39:24.926Z,40.03
2023-04-12T00:41:51.349Z,43.40
2023-04-12T00:44:20.473Z,36.30
2023-04-12T00:46:47.292Z,44.45
2023-04-12T00:49:15.449Z,38.20
2023-04-12T00:51:42.380Z,36.65
2023-04-12T00:54:08.937Z,42.42
2023-04-12T00:56:36.874Z,37.95
2023-04-12T00:59:03.500Z,40.88
2023-04-12T01:01:31.933Z,42.50
2023-04-12T01:04:01.476Z,39.60
2023-04-12T01:06:55.732Z,43.85
2023-04-12T01:09:35.927Z,39.50
2023-04-12T01:12:16.619Z,37.08
2023-04-12T01:15:02.541Z,36.75
2023-04-12T01:17:37.863Z,37.08
2023-04-12T01:20:14.504Z,38.00
2023-04-12T01:22:54.712Z,38.28
2023-04-12T01:25:52.552Z,37.47
2023-04-12T01:28:24.342Z,47.67
2023-04-12T01:30:52.166Z,34.92
2023-04-12T01:33:18.985Z,35.78
2023-04-12T01:35:48.223Z,35.45
2023-04-12T01:38:15.035Z,36.75
2023-04-12T01:40:42.631Z,34.72
2023-04-12T01:43:14.040Z,35.38
2023-04-12T01:45:40.809Z,35.08
2023-04-12T01:48:12.492Z,39.60
2023-04-12T01:50:56.461Z,36.00
2023-04-12T01:53:43.160Z,35.03
2023-04-12T01:56:10.523Z,34.22
2023-04-12T01:58:39.670Z,34.25
2023-04-12T02:01:08.461Z,34.67
2023-04-12T02:03:37.445Z,40.20
2023-04-12T02:06:05.772Z,33.00
2023-04-12T02:08:32.516Z,34.45
2023-04-12T02:10:59.014Z,35.97
2023-04-12T02:13:26.671Z,34.60
2023-04-12T02:15:54.551Z,34.72
2023-04-12T02:18:21.062Z,34.17
2023-04-12T02:20:47.572Z,33.85
2023-04-12T02:23:13.996Z,34.08
2023-04-12T02:25:41.317Z,32.90
2023-04-12T02:28:07.893Z,34.25
2023-04-12T02:30:34.362Z,37.63
2023-04-12T02:33:02.333Z,37.47
2023-04-12T02:35:32.009Z,35.63
2023-04-12T02:37:58.602Z,36.85
2023-04-12T02:40:25.102Z,36.05
2023-04-12T02:42:51.509Z,34.67
2023-04-12T02:45:18.070Z,33.92
2023-04-12T02:47:44.534Z,37.70
2023-04-12T02:50:11.613Z,43.42
2023-04-12T02:52:38.123Z,38.55
2023-04-12T02:55:04.978Z,37.33
2023-04-12T02:57:31.628Z,34.40
2023-04-12T02:59:58.076Z,34.92
2023-04-12T03:02:24.773Z,34.60
2023-04-12T03:04:51.357Z,38.40
2023-04-12T03:07:19.694Z,39.75
2023-04-12T03:09:47.741Z,35.05
2023-04-12T03:12:16.025Z,33.80
2023-04-12T03:14:42.986Z,32.15
2023-04-12T03:17:09.534Z,33.38
2023-04-12T03:19:36.711Z,31.98
2023-04-12T03:22:04.546Z,33.08
2023-04-12T03:24:34.238Z,32.25
2023-04-12T03:27:06.837Z,29.10
2023-04-12T03:29:33.377Z,28.85
2023-04-12T03:31:59.865Z,30.20
2023-04-12T03:34:33.037Z,28.08
2023-04-12T03:37:01.171Z,28.58
2023-04-12T03:39:28.464Z,28.17
2023-04-12T03:41:55.507Z,28.60
2023-04-12T03:44:22.550Z,28.83
2023-04-12T03:46:49.446Z,32.53
2023-04-12T03:49:16.645Z,31.88
2023-04-12T03:51:43.624Z,26.83
2023-04-12T03:54:11.092Z,30.90
2023-04-12T03:56:38.680Z,26.02
2023-04-12T03:59:07.705Z,27.73
2023-04-12T04:01:35.308Z,26.02
2023-04-12T04:04:03.502Z,27.60
2023-04-12T04:06:30.454Z,29.45
2023-04-12T04:08:57.784Z,32.00
2023-04-12T04:11:25.565Z,23.20
2023-04-12T04:13:52.116Z,22.73
2023-04-12T04:16:19.163Z,22.15
2023-04-12T04:18:46.137Z,22.73
2023-04-12T04:21:14.356Z,22.13
2023-04-12T04:23:44.788Z,22.63
2023-04-12T04:26:11.863Z,23.10
2023-04-12T04:28:39.458Z,21.65
2023-04-12T04:31:06.382Z,20.67
2023-04-12T04:33:33.721Z,20.88
2023-04-12T04:36:01.006Z,20.10
2023-04-12T04:38:28.374Z,20.65
2023-04-12T04:40:55.264Z,26.23
2023-04-12T04:43:22.043Z,19.95
2023-04-12T04:45:51.659Z,21.95
2023-04-12T04:48:21.546Z,21.83
2023-04-12T04:50:48.566Z,25.30
2023-04-12T04:53:18.747Z,24.98
2023-04-12T04:55:45.250Z,19.27
2023-04-12T04:58:11.848Z,21.45
2023-04-12T05:00:38.747Z,18.58
2023-04-12T05:03:05.582Z,18.38
2023-04-12T05:05:32.654Z,17.98
2023-04-12T05:07:59.146Z,17.88
2023-04-12T05:10:25.775Z,22.17
2023-04-12T05:12:52.330Z,18.73
2023-04-12T05:15:19.034Z,16.58
2023-04-12T05:17:46.065Z,16.35
2023-04-12T05:20:12.533Z,19.77
2023-04-12T05:22:39.327Z,18.02
2023-04-12T05:25:06.455Z,17.25
2023-04-12T05:27:32.925Z,16.45
2023-04-12T05:29:59.771Z,17.88
2023-04-12T05:32:26.534Z,16.75
2023-04-12T05:34:53.045Z,18.20
2023-04-12T05:37:19.803Z,17.08
2023-04-12T05:39:46.260Z,18.08
2023-04-12T05:42:12.774Z,16.55
2023-04-12T05:44:40.009Z,15.70
2023-04-12T05:47:16.198Z,16.73
2023-04-12T05:49:42.642Z,15.70
2023-04-12T05:52:09.154Z,18.67
2023-04-12T05:54:35.776Z,15.60
2023-04-12T05:57:02.790Z,17.25
2023-04-12T05:59:29.759Z,15.23
2023-04-12T06:01:56.416Z,14.43
2023-04-12T06:04:24.200Z,16.65
2023-04-12T06:06:56.140Z,16.08
2023-04-12T06:09:22.976Z,15.35
2023-04-12T06:11:49.469Z,14.18
2023-04-12T06:14:16.334Z,16.85
2023-04-12T06:16:42.880Z,13.10
2023-04-12T06:19:11.226Z,13.27
2023-04-12T06:21:37.790Z,13.85
2023-04-12T06:24:04.448Z,16.27
2023-04-12T06:26:38.905Z,15.77
2023-04-12T06:29:06.472Z,16.95
2023-04-12T06:31:33.028Z,23.38
2023-04-12T06:34:01.035Z,15.52
2023-04-12T06:36:27.582Z,15.07
2023-04-12T06:38:55.363Z,19.58
2023-04-12T06:41:22.273Z,13.95
2023-04-12T06:43:48.839Z,17.73
2023-04-12T06:46:15.972Z,14.63
2023-04-12T06:48:42.512Z,17.23
2023-04-12T06:51:10.216Z,14.23
2023-04-12T06:53:38.327Z,13.60
2023-04-12T06:56:05.627Z,14.57
2023-04-12T06:58:32.133Z,12.63
2023-04-12T07:01:09.966Z,13.00
2023-04-12T07:03:37.123Z,12.63
2023-04-12T07:06:13.781Z,13.23
2023-04-12T07:08:50.717Z,14.73
2023-04-12T07:11:21.322Z,12.95
2023-04-12T07:13:49.196Z,13.70
2023-04-12T07:16:16.088Z,13.25
2023-04-12T07:18:42.576Z,12.38
2023-04-12T07:21:09.218Z,13.93
2023-04-12T07:23:35.747Z,12.15
2023-04-12T07:26:02.687Z,18.10
2023-04-12T07:28:29.164Z,12.93
2023-04-12T07:30:55.839Z,12.80
2023-04-12T07:33:22.450Z,14.35
2023-04-12T07:35:48.999Z,16.02
2023-04-12T07:38:16.801Z,13.30
2023-04-12T07:40:43.651Z,13.30
2023-04-12T07:43:10.364Z,13.00
2023-04-12T07:45:37.559Z,17.77
2023-04-12T07:48:04.376Z,13.10
2023-04-12T07:50:31.282Z,12.25
2023-04-12T07:53:17.659Z,15.90
2023-04-12T07:55:44.277Z,14.85
2023-04-12T07:58:10.792Z,13.43
2023-04-12T08:00:37.240Z,13.80
2023-04-12T08:03:03.849Z,13.00
2023-04-12T08:05:30.694Z,13.80
2023-04-12T08:07:57.093Z,13.63
2023-04-12T08:10:23.546Z,13.55
2023-04-12T08:12:50.119Z,16.70
2023-04-12T08:15:16.636Z,15.85
2023-04-12T08:17:43.983Z,15.00
2023-04-12T08:20:11.224Z,14.48
2023-04-12T08:22:37.790Z,12.93
2023-04-12T08:25:04.588Z,14.07
2023-04-12T08:27:31.460Z,13.15
2023-04-12T08:29:57.929Z,13.07
2023-04-12T08:32:24.602Z,15.90
2023-04-12T08:34:51.420Z,12.98
2023-04-12T08:37:18.066Z,13.13
2023-04-12T08:39:44.555Z,14.85
2023-04-12T08:42:11.228Z,15.68
2023-04-12T08:44:39.311Z,16.95
2023-04-12T08:47:07.676Z,19.63
2023-04-12T08:49:35.235Z,14.05
2023-04-12T08:52:07.712Z,15.20
2023-04-12T08:54:35.657Z,12.93
2023-04-12T08:57:06.501Z,14.93
2023-04-12T08:59:37.670Z,14.35
2023-04-12T09:02:04.351Z,20.52
2023-04-12T09:04:31.176Z,13.13
2023-04-12T09:06:57.678Z,16.67
2023-04-12T09:09:46.961Z,16.48
2023-04-12T09:12:15.228Z,13.20
2023-04-12T09:14:45.283Z,12.65
2023-04-12T09:17:22.524Z,12.95
2023-04-12T09:19:49.112Z,15.38
2023-04-12T09:22:16.085Z,15.57
2023-04-12T09:24:50.640Z,16.05
2023-04-12T09:27:21.006Z,17.88
2023-04-12T09:29:51.464Z,13.57
2023-04-12T09:32:28.688Z,16.52
2023-04-12T09:35:01.252Z,13.27
2023-04-12T09:37:28.107Z,13.88
2023-04-12T09:40:03.625Z,15.55
2023-04-12T09:42:34.465Z,13.45
2023-04-12T09:45:20.201Z,14.30
2023-04-12T09:47:46.994Z,15.27
2023-04-12T09:50:21.995Z,13.48
2023-04-12T09:52:49.538Z,14.68
2023-04-12T09:55:17.536Z,17.25
2023-04-12T09:57:45.250Z,15.05
2023-04-12T10:00:20.234Z,13.32
2023-04-12T10:02:52.746Z,18.60
2023-04-12T10:05:22.249Z,17.35
2023-04-12T10:07:50.128Z,16.50
2023-04-12T10:10:18.487Z,13.93
2023-04-12T10:12:46.614Z,16.33
2023-04-12T10:15:13.683Z,12.88
2023-04-12T10:17:45.837Z,15.00
2023-04-12T10:20:17.005Z,13.35
2023-04-12T10:22:52.268Z,16.95
2023-04-12T10:25:21.735Z,16.60
2023-04-12T10:27:48.875Z,12.98
2023-04-12T10:30:22.472Z,19.60
2023-04-12T10:33:10.092Z,15.43
2023-04-12T10:35:53.370Z,14.52
2023-04-12T10:38:20.627Z,13.80
2023-04-12T10:41:19.534Z,13.27
2023-04-12T10:43:49.786Z,13.77
2023-04-12T10:49:09.459Z,14.82
2023-04-12T10:51:36.285Z,16.83
2023-04-12T10:54:08.660Z,17.67
2023-04-12T10:56:39.778Z,18.50
2023-04-12T10:59:07.881Z,19.75
2023-04-12T11:01:38.397Z,18.17
2023-04-12T11:04:14.540Z,20.75
2023-04-12T11:07:04.589Z,21.40
2023-04-12T11:09:33.937Z,21.05
2023-04-12T11:12:08.830Z,21.97
2023-04-12T11:14:37.996Z,22.33
2023-04-12T11:17:13.892Z,23.98
2023-04-12T11:19:43.687Z,26.52
2023-04-12T11:22:12.123Z,24.27
2023-04-12T11:24:49.061Z,24.52
2023-04-12T11:27:16.385Z,24.65
2023-04-12T11:29:43.650Z,29.50
2023-04-12T11:32:14.654Z,26.40
2023-04-12T11:34:43.264Z,24.83
2023-04-12T11:37:10.493Z,26.02
2023-04-12T11:39:41.304Z,29.75
2023-04-12T11:42:13.349Z,31.55
2023-04-12T11:44:55.167Z,33.05
2023-04-12T11:47:24.811Z,33.70
2023-04-12T11:49:57.371Z,34.20
2023-04-12T11:52:32.394Z,34.03
2023-04-12T11:55:06.481Z,34.58
2023-04-12T11:57:34.285Z,34.55
2023-04-12T12:00:01.345Z,34.25
2023-04-12T12:02:32.973Z,34.78
2023-04-12T12:05:03.684Z,34.90
2023-04-12T12:07:31.637Z,37.28
2023-04-12T12:09:58.588Z,35.60
2023-04-12T12:12:25.560Z,36.28
2023-04-12T12:14:52.150Z,35.97
2023-04-12T12:17:19.454Z,36.00
2023-04-12T12:19:46.604Z,36.83
2023-04-12T12:22:15.676Z,36.30
2023-04-12T12:24:52.278Z,34.38
2023-04-12T12:27:23.920Z,34.80
2023-04-12T12:29:55.127Z,34.42
2023-04-12T12:32:23.747Z,34.15
2023-04-12T12:34:58.170Z,35.25
2023-04-12T12:37:26.165Z,34.92
2023-04-12T12:40:16.685Z,35.22
2023-04-12T12:42:47.560Z,35.90
2023-04-12T12:45:17.555Z,35.65
2023-04-12T12:48:00.508Z,35.38
2023-04-12T12:50:28.831Z,35.30
2023-04-12T12:52:57.013Z,34.58
2023-04-12T12:55:24.742Z,33.92
2023-04-12T12:58:07.464Z,35.38
2023-04-12T13:00:35.513Z,35.97
2023-04-12T13:03:02.757Z,34.97
2023-04-12T13:05:30.057Z,36.72
2023-04-12T13:07:56.947Z,35.80
2023-04-12T13:10:23.807Z,35.33
2023-04-12T13:12:50.394Z,34.75
2023-04-12T13:15:23.199Z,35.05
2023-04-12T13:17:54.768Z,35.33
2023-04-12T13:20:22.653Z,35.55
2023-04-12T13:22:51.421Z,36.70
2023-04-12T13:25:19.805Z,35.90
2023-04-12T13:27:48.770Z,34.35
2023-04-12T13:30:15.607Z,35.78
2023-04-12T13:32:42.057Z,34.80
2023-04-12T13:35:09.037Z,35.22
2023-04-12T13:37:35.514Z,36.03
2023-04-12T13:40:01.982Z,35.53
2023-04-12T13:42:28.546Z,35.13
2023-04-12T13:44:55.319Z,35.40
2023-04-12T13:47:22.498Z,35.05
2023-04-12T13:49:49.366Z,35.75
2023-04-12T13:52:16.096Z,36.33
2023-04-12T13:54:43.261Z,33.83
2023-04-12T13:57:10.198Z,35.10
2023-04-12T13:59:36.780Z,35.47
2023-04-12T14:02:03.403Z,36.08
2023-04-12T14:04:31.511Z,35.97
2023-04-12T14:06:58.956Z,36.00
2023-04-12T14:09:30.471Z,35.15
2023-04-12T14:11:58.587Z,33.80
2023-04-12T14:14:27.136Z,33.88
2023-04-12T14:16:57.644Z,34.40
2023-04-12T14:19:24.761Z,35.10
2023-04-12T14:21:51.760Z,33.65
2023-04-12T14:24:19.688Z,33.75
2023-04-12T14:26:46.618Z,34.25
2023-04-12T14:29:13.571Z,34.00
2023-04-12T14:31:40.572Z,34.85
2023-04-12T14:34:08.699Z,34.00
2023-04-12T14:36:35.297Z,34.53
2023-04-12T14:39:03.791Z,34.90
2023-04-12T14:41:31.488Z,33.83
2023-04-12T14:44:01.623Z,34.30
2023-04-12T14:46:28.584Z,33.83
2023-04-12T14:48:57.094Z,34.38
2023-04-12T14:51:24.389Z,34.15
2023-04-12T14:53:51.021Z,34.55
2023-04-12T14:56:27.909Z,33.95
2023-04-12T14:58:56.744Z,34.47
2023-04-12T15:01:24.798Z,34.53
2023-04-12T15:03:52.354Z,34.00
2023-04-12T15:06:20.831Z,34.70
2023-04-12T15:08:49.558Z,33.70
2023-04-12T15:11:18.932Z,33.65
2023-04-12T15:13:45.428Z,34.57
2023-04-12T15:16:15.215Z,34.80
2023-04-12T15:18:41.883Z,35.10
2023-04-12T15:21:10.398Z,35.20
2023-04-12T15:23:38.032Z,34.55
2023-04-12T15:26:06.647Z,35.90
2023-04-12T15:28:33.556Z,35.08
2023-04-12T15:31:01.073Z,36.00
2023-04-12T15:33:28.536Z,35.17
2023-04-12T15:35:58.101Z,36.47
2023-04-12T15:38:24.846Z,36.75
2023-04-12T15:40:59.200Z,35.13
2023-04-12T15:43:26.319Z,35.33
2023-04-12T15:45:54.633Z,35.42
2023-04-12T15:48:22.990Z,35.83
2023-04-12T15:50:50.798Z,35.50
2023-04-12T15:53:20.392Z,36.33
2023-04-12T15:55:47.822Z,36.33
2023-04-12T15:58:14.698Z,36.25
2023-04-12T16:00:41.219Z,34.50
2023-04-12T16:03:07.887Z,33.85
2023-04-12T16:05:34.917Z,33.65
2023-04-12T16:08:01.492Z,33.55
2023-04-12T16:10:28.110Z,34.25
2023-04-12T16:12:56.338Z,33.60
2023-04-12T16:15:23.070Z,32.95
2023-04-12T16:17:54.318Z,32.45
2023-04-12T16:20:21.814Z,32.78
2023-04-12T16:22:54.169Z,31.75
2023-04-12T16:25:22.486Z,31.58
2023-04-12T16:27:49.005Z,32.92
2023-04-12T16:30:16.019Z,32.58
2023-04-12T16:32:46.697Z,33.05
2023-04-12T16:35:16.728Z,32.80
2023-04-12T16:37:44.181Z,32.42
2023-04-12T16:40:12.782Z,32.00
2023-04-12T16:42:43.773Z,33.00
2023-04-12T16:45:12.165Z,31.50
2023-04-12T16:47:39.656Z,32.30
2023-04-12T16:50:12.750Z,31.63
2023-04-12T16:52:39.961Z,31.73
2023-04-12T16:55:07.113Z,31.83
2023-04-12T16:57:33.546Z,31.85
2023-04-12T17:00:00.394Z,31.00
2023-04-12T17:02:27.249Z,31.90
2023-04-12T17:04:53.799Z,31.13
2023-04-12T17:07:20.316Z,31.45
2023-04-12T17:09:46.804Z,31.30
2023-04-12T17:12:13.243Z,30.33
2023-04-12T17:14:39.839Z,29.85
2023-04-12T17:17:06.759Z,30.23
2023-04-12T17:19:33.461Z,30.55
2023-04-12T17:22:00.005Z,30.52
2023-04-12T17:24:26.800Z,30.50
2023-04-12T17:26:53.801Z,30.80
2023-04-12T17:29:20.844Z,30.58
2023-04-12T17:31:50.633Z,31.02
2023-04-12T17:34:19.603Z,31.98
2023-04-12T17:36:46.304Z,31.30
2023-04-12T17:39:12.775Z,34.47
2023-04-12T17:41:39.514Z,30.25
2023-04-12T17:44:06.686Z,30.70
2023-04-12T17:46:34.695Z,31.65
2023-04-12T17:49:04.030Z,30.60
2023-04-12T17:51:32.140Z,30.73
2023-04-12T17:54:00.344Z,31.52
2023-04-12T17:56:26.945Z,32.05
2023-04-12T17:58:53.532Z,31.35
2023-04-12T18:01:20.163Z,32.58
2023-04-12T18:03:47.620Z,32.15
2023-04-12T18:06:15.059Z,32.33
2023-04-12T18:08:41.488Z,32.78
2023-04-12T18:11:07.990Z,31.58
2023-04-12T18:13:34.657Z,31.30
2023-04-12T18:16:01.594Z,31.60
2023-04-12T18:18:28.247Z,32.40
2023-04-12T18:20:54.818Z,31.10
2023-04-12T18:23:21.637Z,32.33
2023-04-12T18:25:48.219Z,31.48
2023-04-12T18:28:15.244Z,31.65
2023-04-12T18:30:41.666Z,34.03
2023-04-12T18:33:08.338Z,33.60
2023-04-12T18:35:35.276Z,34.53
2023-04-12T18:38:01.758Z,35.35
2023-04-12T18:40:28.673Z,41.65
2023-04-12T18:42:55.212Z,38.35
2023-04-12T18:45:22.733Z,38.97
2023-04-12T18:47:51.267Z,39.03
2023-04-12T18:50:19.317Z,37.92
2023-04-12T18:52:45.937Z,38.65
2023-04-12T18:55:12.387Z,37.88
2023-04-12T18:57:38.822Z,39.10
2023-04-12T19:00:13.537Z,40.03
2023-04-12T19:02:40.928Z,44.38
2023-04-12T19:05:10.323Z,39.33
2023-04-12T19:07:37.347Z,39.23
2023-04-12T19:10:04.622Z,37.85
2023-04-12T19:12:31.744Z,37.20
2023-04-12T19:14:58.302Z,36.72
2023-04-12T19:17:27.765Z,35.60
2023-04-12T19:19:54.541Z,35.67
2023-04-12T19:22:21.489Z,35.35
2023-04-12T19:24:49.861Z,37.50
2023-04-12T19:27:16.791Z,35.83
2023-04-12T19:29:44.032Z,36.38
2023-04-12T19:32:13.570Z,34.40
2023-04-12T19:34:41.120Z,32.35
2023-04-12T19:37:08.303Z,32.65
2023-04-12T19:39:34.854Z,30.48
2023-04-12T19:42:02.215Z,29.75
2023-04-12T19:44:29.231Z,30.08
2023-04-12T19:46:55.747Z,29.15
2023-04-12T19:49:23.714Z,29.55
2023-04-12T19:51:51.077Z,29.85
2023-04-12T19:54:18.864Z,30.48
2023-04-12T19:56:49.665Z,29.48
2023-04-12T19:59:17.831Z,28.58
2023-04-12T20:01:50.548Z,28.00
2023-04-12T20:04:21.627Z,29.08
2023-04-12T20:06:50.065Z,29.50
2023-04-12T20:09:17.352Z,28.00
2023-04-12T20:11:43.974Z,30.73
2023-04-12T20:14:10.666Z,29.38
2023-04-12T20:16:38.298Z,30.67
2023-04-12T20:19:04.982Z,29.88
2023-04-12T20:21:34.046Z,29.80
2023-04-12T20:24:02.339Z,29.67
2023-04-12T20:26:31.649Z,29.98
2023-04-12T20:28:59.831Z,30.67
2023-04-12T20:31:26.980Z,30.17
2023-04-12T20:33:57.265Z,30.60
2023-04-12T20:38:53.737Z,31.25
2023-04-12T20:41:20.300Z,30.98
2023-04-12T20:43:48.104Z,31.02
2023-04-12T20:46:16.973Z,31.02
2023-04-12T20:48:44.481Z,33.10
2023-04-12T20:51:18.155Z,32.65
2023-04-12T20:53:47.237Z,32.08
2023-04-12T20:56:14.191Z,31.98
2023-04-12T20:58:41.101Z,31.77
2023-04-12T21:01:14.904Z,31.67
2023-04-12T21:03:43.234Z,31.80
2023-04-12T21:06:11.010Z,32.28
2023-04-12T21:08:38.896Z,31.88
2023-04-12T21:11:06.253Z,32.83
2023-04-12T21:13:34.625Z,33.42
2023-04-12T21:16:05.369Z,33.25
2023-04-12T21:18:34.383Z,33.42
2023-04-12T21:21:01.743Z,33.83
2023-04-12T21:23:28.250Z,33.33
2023-04-12T21:25:54.825Z,34.53
2023-04-12T21:28:22.725Z,33.65
2023-04-12T21:30:54.777Z,34.35
2023-04-12T21:33:24.898Z,34.25
2023-04-12T21:35:55.562Z,35.30
2023-04-12T21:38:23.269Z,35.25
2023-04-12T21:40:50.346Z,34.97
2023-04-12T21:43:17.336Z,33.95
2023-04-12T21:45:45.393Z,34.60
2023-04-12T21:48:14.347Z,33.67
2023-04-12T21:50:41.834Z,34.45
2023-04-12T21:53:08.368Z,34.40
2023-04-12T21:55:34.868Z,34.85
2023-04-12T21:58:01.414Z,34.63
2023-04-12T22:00:28.300Z,35.72
2023-04-12T22:02:54.839Z,35.38
2023-04-12T22:05:21.621Z,34.15
2023-04-12T22:07:48.204Z,37.15
2023-04-12T22:10:14.819Z,34.00
2023-04-12T22:12:41.295Z,34.95
2023-04-12T22:15:09.076Z,34.40
2023-04-12T22:17:35.864Z,35.35
2023-04-12T22:20:03.809Z,34.25
2023-04-12T22:22:31.790Z,35.88
2023-04-12T22:24:58.175Z,36.17
2023-04-12T22:27:26.433Z,35.72
2023-04-12T22:29:53.515Z,35.28
2023-04-12T22:32:20.023Z,35.85
2023-04-12T22:34:46.984Z,35.88
2023-04-12T22:39:42.970Z,36.65
2023-04-12T22:42:09.680Z,37.25
2023-04-12T22:44:38.386Z,36.53
2023-04-12T22:47:07.150Z,37.53
2023-04-12T22:49:44.481Z,36.78
2023-04-12T22:52:10.928Z,37.45
2023-04-12T22:54:37.415Z,35.80
2023-04-12T22:57:04.370Z,36.15
2023-04-12T22:59:30.856Z,36.92
2023-04-12T23:01:57.386Z,36.53
2023-04-12T23:04:23.952Z,37.20
2023-04-12T23:06:55.067Z,37.08
2023-04-12T23:09:21.590Z,38.08
2023-04-12T23:11:48.495Z,37.92
2023-04-12T23:14:17.662Z,38.25
2023-04-12T23:16:46.197Z,38.50
2023-04-12T23:19:14.569Z,38.65
2023-04-12T23:21:41.996Z,37.47
2023-04-12T23:24:11.402Z,37.85
2023-04-12T23:26:37.985Z,37.73
2023-04-12T23:29:04.454Z,39.50
2023-04-12T23:31:33.522Z,37.65
2023-04-12T23:34:03.188Z,39.45
2023-04-12T23:36:30.306Z,38.83
2023-04-12T23:38:59.969Z,37.83
2023-04-12T23:41:31.614Z,39.17
2023-04-12T23:43:58.828Z,39.50
2023-04-12T23:46:26.260Z,39.83
2023-04-12T23:48:52.757Z,39.10
2023-04-12T23:51:19.294Z,39.15
2023-04-12T23:53:46.120Z,37.83
2023-04-12T23:56:12.885Z,39.53
2023-04-12T23:58:39.315Z,37.97
